createdAt,value
2018-03-15T00:01:16.182Z,0.48
2018-03-15T00:03:43.829Z,0.51
2018-03-15T00:06:11.476Z,0.42
2018-03-15T00:08:39.060Z,0.07
2018-03-15T00:11:06.689Z,0.12
2018-03-15T00:13:34.267Z,0.24
2018-03-15T00:16:01.916Z,0.24
2018-03-15T00:18:29.494Z,0.17
2018-03-15T00:20:57.134Z,0.17
2018-03-15T00:23:24.733Z,0.12
2018-03-15T00:25:52.397Z,0.11
2018-03-15T00:28:20.056Z,0.18
2018-03-15T00:30:47.642Z,0.16
2018-03-15T00:33:15.312Z,0.06
2018-03-15T00:35:42.948Z,0.12
2018-03-15T00:38:10.585Z,0.15
2018-03-15T00:40:38.205Z,0.09
2018-03-15T00:43:05.840Z,0.06
2018-03-15T00:45:33.431Z,0.06
2018-03-15T00:48:01.078Z,0.06
2018-03-15T00:50:28.708Z,0.03
2018-03-15T00:52:56.313Z,0.09
2018-03-15T00:55:23.977Z,0.06
2018-03-15T00:57:51.613Z,0.08
2018-03-15T01:00:19.293Z,0.09
2018-03-15T01:02:46.949Z,0.08
2018-03-15T01:05:14.584Z,-0.01
2018-03-15T01:07:42.264Z,0.05
2018-03-15T01:10:09.853Z,-0.02
2018-03-15T01:12:37.476Z,-0.14
2018-03-15T01:15:05.133Z,-0.19
2018-03-15T01:17:32.782Z,-0.20
2018-03-15T01:20:00.385Z,-0.17
2018-03-15T01:22:28.049Z,-0.36
2018-03-15T01:24:55.687Z,-0.39
2018-03-15T01:27:23.332Z,-0.38
2018-03-15T01:29:50.945Z,-0.29
2018-03-15T01:32:18.609Z,-0.45
2018-03-15T01:34:46.252Z,-0.47
2018-03-15T01:37:13.874Z,-0.45
2018-03-15T01:39:41.513Z,-0.45
2018-03-15T01:42:09.100Z,-0.50
2018-03-15T01:44:36.845Z,-0.72
2018-03-15T01:47:04.453Z,-0.57
2018-03-15T01:49:32.072Z,-0.59
2018-03-15T01:51:59.736Z,-0.62
2018-03-15T01:54:27.345Z,-0.61
2018-03-15T01:56:54.976Z,-0.64
2018-03-15T01:59:22.588Z,-0.57
2018-03-15T02:01:50.243Z,-0.54
2018-03-15T02:04:17.855Z,-0.52
2018-03-15T02:06:45.494Z,-0.51
2018-03-15T02:09:13.080Z,-0.43
2018-03-15T02:11:40.706Z,-0.42
2018-03-15T02:14:08.360Z,-0.40
2018-03-15T02:16:35.949Z,-0.29
2018-03-15T02:19:03.594Z,-0.34
2018-03-15T02:21:31.242Z,-0.42
2018-03-15T02:23:58.832Z,-0.44
2018-03-15T02:26:26.478Z,-0.61
2018-03-15T02:28:54.087Z,-0.67
2018-03-15T02:31:21.740Z,-0.60
2018-03-15T02:33:49.349Z,-0.57
2018-03-15T02:36:17.008Z,-0.59
2018-03-15T02:38:45.092Z,-0.65
2018-03-15T02:41:12.724Z,-0.64
2018-03-15T02:43:40.349Z,-0.59
2018-03-15T02:46:07.982Z,-0.61
2018-03-15T02:48:35.798Z,-0.51
2018-03-15T02:51:03.405Z,-0.41
2018-03-15T02:53:31.019Z,-0.41
2018-03-15T02:55:58.709Z,-0.43
2018-03-15T02:58:26.324Z,-0.43
2018-03-15T03:00:53.903Z,-0.41
2018-03-15T03:03:21.596Z,-0.56
2018-03-15T03:05:49.174Z,-0.73
2018-03-15T03:08:16.841Z,-0.66
2018-03-15T03:10:44.496Z,-0.88
2018-03-15T03:13:12.136Z,-1.05
2018-03-15T03:15:39.771Z,-0.81
2018-03-15T03:18:07.416Z,-0.70
2018-03-15T03:20:35.028Z,-0.61
2018-03-15T03:23:02.687Z,-0.65
2018-03-15T03:25:30.272Z,-0.63
2018-03-15T03:27:57.904Z,-0.53
2018-03-15T03:30:25.543Z,-0.39
2018-03-15T03:32:53.135Z,-0.56
2018-03-15T03:35:20.766Z,-0.56
2018-03-15T03:37:48.379Z,-0.51
2018-03-15T03:40:16.034Z,-0.45
2018-03-15T03:42:43.652Z,-0.54
2018-03-15T03:45:11.237Z,-0.70
2018-03-15T03:47:38.885Z,-0.86
2018-03-15T03:50:06.541Z,-0.91
2018-03-15T03:52:34.155Z,-0.94
2018-03-15T03:55:01.810Z,-1.01
2018-03-15T03:57:29.414Z,-1.01
2018-03-15T03:59:57.077Z,-0.94
2018-03-15T04:02:24.697Z,-0.98
2018-03-15T04:04:52.356Z,-0.74
2018-03-15T04:07:20.003Z,-0.80
2018-03-15T04:09:47.665Z,-0.76
2018-03-15T04:12:15.283Z,-0.79
2018-03-15T04:14:42.956Z,-0.76
2018-03-15T04:17:10.604Z,-0.74
2018-03-15T04:19:38.216Z,-0.73
2018-03-15T04:22:05.869Z,-0.61
2018-03-15T04:24:33.454Z,-0.61
2018-03-15T04:27:01.082Z,-0.88
2018-03-15T04:29:28.698Z,-0.95
2018-03-15T04:31:56.367Z,-0.87
2018-03-15T04:34:24.012Z,-0.88
2018-03-15T04:36:51.611Z,-1.04
2018-03-15T04:39:19.261Z,-1.17
2018-03-15T04:41:46.851Z,-1.13
2018-03-15T04:44:14.497Z,-1.14
2018-03-15T04:46:42.152Z,-1.06
2018-03-15T04:49:09.727Z,-0.84
2018-03-15T04:51:37.369Z,-0.82
2018-03-15T04:54:04.974Z,-0.76
2018-03-15T04:56:32.632Z,-0.65
2018-03-15T04:59:00.286Z,-0.76
2018-03-15T05:01:27.883Z,-0.86
2018-03-15T05:03:55.600Z,-0.96
2018-03-15T05:06:23.196Z,-0.96
2018-03-15T05:08:50.886Z,-0.97
2018-03-15T05:11:18.525Z,-1.04
2018-03-15T05:13:46.138Z,-1.07
2018-03-15T05:16:13.807Z,-0.79
2018-03-15T05:18:41.450Z,-0.70
2018-03-15T05:21:09.195Z,-0.65
2018-03-15T05:23:36.829Z,-0.75
2018-03-15T05:26:04.516Z,-0.66
2018-03-15T05:28:32.172Z,-0.73
2018-03-15T05:30:59.874Z,-0.97
2018-03-15T05:33:27.546Z,-1.01
2018-03-15T05:35:55.211Z,-1.12
2018-03-15T05:38:22.806Z,-1.15
2018-03-15T05:40:50.489Z,-0.91
2018-03-15T05:43:18.102Z,-0.96
2018-03-15T05:45:45.779Z,-1.03
2018-03-15T05:48:13.450Z,-1.19
2018-03-15T05:50:41.117Z,-1.16
2018-03-15T05:53:08.714Z,-1.18
2018-03-15T05:55:36.401Z,-1.24
2018-03-15T05:58:04.093Z,-1.26
2018-03-15T06:00:31.775Z,-1.31
2018-03-15T06:02:59.421Z,-1.10
2018-03-15T06:05:27.072Z,-1.26
2018-03-15T06:07:54.746Z,-1.13
2018-03-15T06:10:22.370Z,-1.00
2018-03-15T06:12:50.042Z,-0.85
2018-03-15T06:15:17.678Z,-0.76
2018-03-15T06:17:45.366Z,-0.72
2018-03-15T06:20:13.015Z,-0.62
2018-03-15T06:22:40.633Z,-0.47
2018-03-15T06:25:08.284Z,-0.35
2018-03-15T06:27:35.933Z,-0.67
2018-03-15T06:30:03.695Z,-0.53
2018-03-15T06:32:31.350Z,-0.73
2018-03-15T06:34:58.967Z,-0.75
2018-03-15T06:37:26.580Z,-1.02
2018-03-15T06:39:54.293Z,-0.90
2018-03-15T06:42:21.921Z,-1.10
2018-03-15T06:44:49.647Z,-1.07
2018-03-15T06:47:17.285Z,-1.04
2018-03-15T06:49:44.941Z,-0.93
2018-03-15T06:52:12.713Z,-0.74
2018-03-15T06:54:40.484Z,-0.65
2018-03-15T06:57:08.155Z,-0.81
2018-03-15T06:59:35.843Z,-0.76
2018-03-15T07:02:04.800Z,-0.48
2018-03-15T07:04:32.403Z,-0.53
2018-03-15T07:07:00.191Z,-0.21
2018-03-15T07:09:27.911Z,-0.28
2018-03-15T07:11:55.583Z,-0.46
2018-03-15T07:14:23.200Z,-0.32
2018-03-15T07:16:50.916Z,-0.46
2018-03-15T07:19:18.599Z,-0.60
2018-03-15T07:21:46.664Z,-0.28
2018-03-15T07:24:14.349Z,-0.08
2018-03-15T07:26:42.020Z,0.12
2018-03-15T07:29:09.616Z,0.12
2018-03-15T07:31:37.344Z,0.21
2018-03-15T07:34:05.032Z,0.19
2018-03-15T07:36:32.694Z,0.15
2018-03-15T07:39:00.343Z,0.22
2018-03-15T07:41:28.014Z,0.52
2018-03-15T07:43:55.656Z,0.46
2018-03-15T07:46:23.323Z,0.27
2018-03-15T07:48:50.978Z,0.37
2018-03-15T07:51:18.732Z,0.71
2018-03-15T07:53:46.354Z,0.95
2018-03-15T07:56:13.963Z,1.02
2018-03-15T07:58:41.609Z,1.12
2018-03-15T08:01:09.202Z,1.16
2018-03-15T08:03:36.853Z,1.35
2018-03-15T08:06:04.491Z,1.21
2018-03-15T08:08:32.199Z,0.85
2018-03-15T08:11:00.889Z,0.76
2018-03-15T08:13:28.570Z,1.21
2018-03-15T08:15:56.247Z,0.99
2018-03-15T08:18:23.946Z,1.01
2018-03-15T08:20:51.681Z,1.44
2018-03-15T08:23:19.356Z,2.05
2018-03-15T08:25:46.963Z,2.11
2018-03-15T08:28:14.622Z,2.00
2018-03-15T08:30:42.281Z,2.33
2018-03-15T08:33:10.047Z,2.79
2018-03-15T08:35:37.800Z,1.78
2018-03-15T08:38:05.592Z,2.48
2018-03-15T08:40:33.258Z,2.92
2018-03-15T08:43:00.865Z,2.63
2018-03-15T08:45:28.551Z,3.70
2018-03-15T08:47:56.225Z,3.35
2018-03-15T08:50:23.979Z,3.01
2018-03-15T08:52:51.732Z,3.02
2018-03-15T08:55:19.469Z,2.74
2018-03-15T08:57:47.114Z,3.18
2018-03-15T09:00:14.805Z,3.43
2018-03-15T09:02:42.413Z,3.28
2018-03-15T09:05:10.097Z,2.84
2018-03-15T09:07:37.844Z,3.14
2018-03-15T09:10:05.513Z,3.42
2018-03-15T09:12:33.142Z,5.07
2018-03-15T09:15:00.782Z,5.49
2018-03-15T09:17:28.501Z,5.52
2018-03-15T09:19:56.250Z,6.00
2018-03-15T09:22:23.915Z,5.99
2018-03-15T09:24:51.550Z,6.32
2018-03-15T09:27:19.199Z,6.36
2018-03-15T09:29:46.814Z,5.82
2018-03-15T09:32:14.509Z,5.83
2018-03-15T09:34:42.135Z,5.73
2018-03-15T09:37:09.807Z,6.74
2018-03-15T09:39:37.470Z,7.38
2018-03-15T09:42:05.166Z,6.99
2018-03-15T09:44:32.838Z,7.41
2018-03-15T09:47:00.553Z,6.45
2018-03-15T09:49:28.171Z,7.16
2018-03-15T09:51:55.847Z,8.12
2018-03-15T09:54:23.511Z,8.38
2018-03-15T09:56:51.186Z,7.55
2018-03-15T09:59:18.861Z,7.63
2018-03-15T10:01:46.489Z,8.92
2018-03-15T10:04:14.156Z,8.48
2018-03-15T10:06:41.839Z,7.15
2018-03-15T10:09:09.708Z,8.03
2018-03-15T10:11:37.356Z,8.21
2018-03-15T10:14:05.103Z,8.67
2018-03-15T10:16:32.726Z,9.05
2018-03-15T10:19:00.465Z,9.14
2018-03-15T10:21:28.155Z,8.00
2018-03-15T10:23:55.784Z,7.95
2018-03-15T10:26:23.638Z,8.06
2018-03-15T10:28:51.256Z,8.70
2018-03-15T10:31:18.930Z,9.64
2018-03-15T10:33:46.578Z,9.70
2018-03-15T10:36:14.252Z,9.49
2018-03-15T10:38:41.900Z,10.16
2018-03-15T10:41:09.609Z,9.97
2018-03-15T10:43:38.199Z,10.38
2018-03-15T10:46:05.854Z,9.93
2018-03-15T10:48:33.550Z,10.23
2018-03-15T10:51:01.184Z,10.18
2018-03-15T10:53:28.870Z,10.68
2018-03-15T10:55:56.508Z,10.62
2018-03-15T10:58:24.185Z,10.33
2018-03-15T11:00:57.484Z,11.28
2018-03-15T11:03:30.800Z,10.83
2018-03-15T11:06:03.943Z,10.57
2018-03-15T11:08:35.625Z,11.06
2018-03-15T11:11:03.314Z,11.18
2018-03-15T11:13:31.062Z,11.38
2018-03-15T11:15:58.704Z,11.65
2018-03-15T11:18:26.381Z,11.78
2018-03-15T11:20:54.010Z,12.19
2018-03-15T11:23:21.696Z,12.41
2018-03-15T11:25:49.433Z,11.98
2018-03-15T11:28:17.113Z,12.36
2018-03-15T11:30:44.834Z,12.17
2018-03-15T11:33:12.496Z,12.49
2018-03-15T11:35:40.243Z,12.30
2018-03-15T11:38:07.962Z,13.19
2018-03-15T11:40:35.598Z,13.22
2018-03-15T11:43:03.211Z,13.29
2018-03-15T11:45:30.929Z,12.82
2018-03-15T11:47:58.610Z,12.87
2018-03-15T11:50:26.351Z,13.06
2018-03-15T11:52:53.995Z,13.26
2018-03-15T11:55:21.668Z,13.12
2018-03-15T11:57:49.329Z,13.93
2018-03-15T12:00:17.040Z,14.56
2018-03-15T12:02:44.892Z,13.94
2018-03-15T12:05:12.585Z,13.76
2018-03-15T12:07:40.260Z,12.83
2018-03-15T12:10:07.940Z,13.51
2018-03-15T12:12:35.614Z,13.49
2018-03-15T12:15:03.335Z,13.99
2018-03-15T12:17:30.980Z,14.88
2018-03-15T12:19:58.640Z,14.83
2018-03-15T12:22:26.217Z,15.17
2018-03-15T12:24:54.140Z,15.17
2018-03-15T12:27:22.611Z,15.43
2018-03-15T12:29:50.270Z,15.84
2018-03-15T12:32:17.950Z,15.16
2018-03-15T12:34:45.692Z,15.33
2018-03-15T12:37:13.327Z,15.18
2018-03-15T12:39:41.014Z,14.79
2018-03-15T12:42:08.684Z,14.30
2018-03-15T12:44:36.318Z,14.36
2018-03-15T12:47:04.186Z,14.79
2018-03-15T12:49:32.440Z,14.59
2018-03-15T12:52:00.089Z,15.00
2018-03-15T12:54:27.794Z,15.29
2018-03-15T12:56:55.435Z,14.42
2018-03-15T12:59:23.144Z,14.98
2018-03-15T13:01:50.953Z,14.61
2018-03-15T13:04:18.662Z,15.04
2018-03-15T13:06:46.290Z,15.15
2018-03-15T13:09:13.974Z,15.39
2018-03-15T13:11:41.674Z,15.57
2018-03-15T13:14:09.305Z,15.02
2018-03-15T13:16:36.929Z,15.55
2018-03-15T13:19:04.635Z,15.87
2018-03-15T13:21:32.271Z,16.09
2018-03-15T13:23:59.932Z,15.65
2018-03-15T13:26:27.532Z,15.28
2018-03-15T13:28:55.204Z,15.32
2018-03-15T13:31:22.873Z,15.21
2018-03-15T13:33:50.547Z,15.33
2018-03-15T13:36:18.209Z,15.76
2018-03-15T13:38:45.902Z,15.95
2018-03-15T13:41:13.516Z,15.93
2018-03-15T13:43:41.156Z,15.46
2018-03-15T13:46:08.808Z,15.52
2018-03-15T13:48:37.383Z,15.50
2018-03-15T13:51:05.156Z,15.34
2018-03-15T13:53:32.821Z,15.26
2018-03-15T13:56:00.464Z,15.26
2018-03-15T13:58:28.141Z,15.54
2018-03-15T14:00:55.823Z,15.59
2018-03-15T14:03:23.470Z,15.29
2018-03-15T14:05:51.139Z,14.77
2018-03-15T14:08:18.764Z,15.25
2018-03-15T14:10:46.438Z,15.15
2018-03-15T14:13:14.053Z,15.34
2018-03-15T14:15:41.730Z,15.00
2018-03-15T14:18:09.419Z,14.64
2018-03-15T14:20:37.047Z,14.58
2018-03-15T14:23:04.726Z,14.49
2018-03-15T14:25:32.380Z,14.59
2018-03-15T14:28:00.065Z,14.40
2018-03-15T14:30:27.687Z,14.21
2018-03-15T14:32:56.160Z,14.33
2018-03-15T14:35:24.180Z,14.79
2018-03-15T14:37:51.768Z,14.56
2018-03-15T14:40:19.429Z,14.92
2018-03-15T14:42:47.113Z,14.56
2018-03-15T14:45:14.806Z,14.92
2018-03-15T14:47:42.457Z,14.69
2018-03-15T14:50:10.129Z,14.15
2018-03-15T14:52:38.569Z,14.13
2018-03-15T14:55:06.237Z,14.18
2018-03-15T14:57:33.900Z,14.07
2018-03-15T15:00:02.422Z,13.84
2018-03-15T15:02:31.008Z,13.36
2018-03-15T15:04:58.618Z,13.27
2018-03-15T15:07:26.318Z,13.28
2018-03-15T15:09:54.012Z,13.09
2018-03-15T15:12:21.729Z,13.01
2018-03-15T15:14:49.427Z,12.99
2018-03-15T15:17:17.072Z,13.26
2018-03-15T15:19:44.693Z,12.96
2018-03-15T15:22:12.362Z,12.96
2018-03-15T15:24:39.969Z,12.95
2018-03-15T15:27:07.675Z,12.90
2018-03-15T15:29:35.283Z,12.98
2018-03-15T15:32:02.981Z,12.96
2018-03-15T15:34:30.592Z,12.95
2018-03-15T15:36:58.199Z,12.63
2018-03-15T15:39:25.861Z,12.73
2018-03-15T15:41:53.566Z,12.77
2018-03-15T15:44:21.179Z,12.79
2018-03-15T15:46:48.832Z,12.64
2018-03-15T15:49:16.560Z,12.55
2018-03-15T15:51:44.300Z,12.41
2018-03-15T15:54:12.093Z,12.45
2018-03-15T15:56:40.535Z,12.38
2018-03-15T15:59:08.238Z,12.26
2018-03-15T16:01:35.939Z,11.71
2018-03-15T16:04:03.727Z,11.62
2018-03-15T16:06:31.464Z,11.40
2018-03-15T16:09:00.071Z,11.17
2018-03-15T16:11:27.784Z,10.94
2018-03-15T16:13:55.527Z,10.53
2018-03-15T16:16:23.281Z,10.47
2018-03-15T16:18:51.957Z,10.44
2018-03-15T16:21:19.807Z,10.32
2018-03-15T16:23:47.465Z,10.26
2018-03-15T16:26:15.077Z,10.23
2018-03-15T16:28:42.858Z,10.39
2018-03-15T16:31:10.523Z,10.43
2018-03-15T16:33:38.268Z,10.23
2018-03-15T16:36:06.026Z,10.01
2018-03-15T16:38:33.730Z,9.72
2018-03-15T16:41:01.435Z,9.76
2018-03-15T16:43:29.102Z,9.72
2018-03-15T16:45:56.847Z,9.52
2018-03-15T16:48:26.042Z,9.44
2018-03-15T16:50:53.733Z,9.43
2018-03-15T16:53:21.429Z,9.48
2018-03-15T16:55:49.320Z,9.48
2018-03-15T16:58:18.979Z,9.54
2018-03-15T17:00:46.736Z,9.59
2018-03-15T17:03:14.391Z,9.61
2018-03-15T17:05:42.183Z,9.10
2018-03-15T17:08:09.803Z,8.68
2018-03-15T17:10:37.577Z,8.57
2018-03-15T17:13:05.266Z,8.77
2018-03-15T17:15:32.937Z,9.32
2018-03-15T17:18:00.584Z,9.64
2018-03-15T17:20:28.288Z,10.00
2018-03-15T17:22:55.912Z,10.25
2018-03-15T17:25:23.577Z,10.20
2018-03-15T17:27:51.237Z,10.09
2018-03-15T17:30:18.899Z,9.74
2018-03-15T17:32:46.570Z,9.45
2018-03-15T17:35:14.194Z,9.35
2018-03-15T17:37:41.955Z,9.30
2018-03-15T17:40:09.691Z,9.28
2018-03-15T17:42:37.423Z,9.25
2018-03-15T17:45:05.073Z,9.06
2018-03-15T17:47:32.690Z,8.86
2018-03-15T17:50:00.373Z,8.75
2018-03-15T17:52:29.158Z,8.73
2018-03-15T17:54:56.764Z,8.71
2018-03-15T17:57:24.433Z,8.74
2018-03-15T17:59:52.091Z,8.84
2018-03-15T18:02:19.735Z,8.74
2018-03-15T18:04:47.446Z,8.62
2018-03-15T18:07:15.725Z,8.48
2018-03-15T18:09:43.444Z,8.50
2018-03-15T18:12:11.096Z,8.58
2018-03-15T18:14:38.731Z,8.46
2018-03-15T18:17:06.393Z,8.37
2018-03-15T18:19:34.982Z,8.11
2018-03-15T18:22:02.628Z,7.85
2018-03-15T18:24:30.289Z,7.75
2018-03-15T18:26:57.936Z,7.78
2018-03-15T18:29:25.661Z,7.69
2018-03-15T18:31:53.367Z,7.45
2018-03-15T18:34:21.029Z,7.44
2018-03-15T18:36:48.701Z,7.38
2018-03-15T18:39:16.407Z,7.46
2018-03-15T18:41:44.197Z,7.57
2018-03-15T18:44:11.902Z,7.42
2018-03-15T18:46:39.831Z,7.37
2018-03-15T18:49:07.787Z,7.37
2018-03-15T18:51:35.463Z,7.06
2018-03-15T18:54:03.121Z,7.09
2018-03-15T18:56:30.827Z,7.11
2018-03-15T18:58:58.532Z,7.12
2018-03-15T19:01:26.289Z,7.18
2018-03-15T19:03:53.982Z,7.36
2018-03-15T19:06:21.623Z,7.41
2018-03-15T19:08:49.312Z,7.34
2018-03-15T19:11:17.077Z,7.22
2018-03-15T19:13:44.791Z,7.15
2018-03-15T19:16:12.410Z,7.09
2018-03-15T19:18:40.131Z,7.15
2018-03-15T19:21:07.814Z,7.06
2018-03-15T19:23:35.485Z,7.13
2018-03-15T19:26:03.143Z,7.10
2018-03-15T19:28:30.896Z,7.07
2018-03-15T19:30:58.560Z,6.87
2018-03-15T19:33:26.177Z,6.57
2018-03-15T19:35:53.894Z,6.52
2018-03-15T19:38:21.587Z,6.61
2018-03-15T19:40:49.199Z,6.64
2018-03-15T19:43:16.939Z,6.67
2018-03-15T19:45:44.572Z,6.56
2018-03-15T19:48:12.272Z,6.65
2018-03-15T19:50:39.940Z,6.56
2018-03-15T19:53:07.610Z,6.68
2018-03-15T19:55:35.319Z,6.76
2018-03-15T19:58:03.061Z,6.82
2018-03-15T20:00:30.728Z,6.71
2018-03-15T20:02:58.520Z,6.80
2018-03-15T20:05:26.169Z,6.85
2018-03-15T20:07:53.827Z,6.76
2018-03-15T20:10:21.497Z,6.58
2018-03-15T20:12:49.202Z,6.34
2018-03-15T20:15:16.860Z,6.36
2018-03-15T20:17:44.586Z,6.41
2018-03-15T20:20:12.244Z,6.38
2018-03-15T20:22:45.437Z,6.29
2018-03-15T20:25:13.078Z,6.31
2018-03-15T20:27:46.307Z,6.32
2018-03-15T20:30:13.916Z,6.33
2018-03-15T20:32:47.107Z,6.35
2018-03-15T20:35:14.794Z,6.29
2018-03-15T20:37:42.470Z,6.20
2018-03-15T20:40:15.509Z,6.14
2018-03-15T20:42:43.177Z,6.08
2018-03-15T20:45:16.257Z,6.11
2018-03-15T20:47:49.546Z,6.16
2018-03-15T20:50:17.383Z,6.22
2018-03-15T20:52:45.039Z,6.20
2018-03-15T20:55:12.699Z,6.25
2018-03-15T20:57:40.710Z,6.29
2018-03-15T21:00:08.413Z,6.34
2018-03-15T21:02:36.778Z,6.41
2018-03-15T21:05:04.529Z,6.45
2018-03-15T21:07:32.179Z,6.43
2018-03-15T21:10:00.184Z,6.23
2018-03-15T21:12:27.924Z,6.10
2018-03-15T21:14:55.916Z,6.11
2018-03-15T21:17:24.062Z,6.06
2018-03-15T21:19:53.239Z,6.07
2018-03-15T21:22:20.935Z,5.99
2018-03-15T21:24:48.631Z,5.88
2018-03-15T21:27:16.322Z,5.92
2018-03-15T21:29:44.143Z,5.89
2018-03-15T21:32:12.128Z,5.85
2018-03-15T21:34:39.848Z,5.72
2018-03-15T21:37:07.610Z,5.73
2018-03-15T21:39:35.310Z,5.67
2018-03-15T21:42:02.966Z,5.77
2018-03-15T21:44:30.652Z,5.66
2018-03-15T21:46:58.443Z,5.76
2018-03-15T21:49:26.260Z,5.87
2018-03-15T21:51:53.936Z,5.93
2018-03-15T21:54:21.966Z,5.87
2018-03-15T21:56:49.671Z,5.74
2018-03-15T21:59:17.323Z,5.82
2018-03-15T22:01:44.925Z,5.85
2018-03-15T22:04:12.710Z,5.84
2018-03-15T22:06:40.477Z,5.81
2018-03-15T22:09:08.165Z,5.80
2018-03-15T22:11:35.774Z,5.81
2018-03-15T22:14:03.429Z,5.79
2018-03-15T22:16:31.128Z,5.83
2018-03-15T22:18:58.821Z,5.84
2018-03-15T22:21:26.537Z,5.89
2018-03-15T22:23:54.156Z,5.96
2018-03-15T22:26:21.821Z,6.02
2018-03-15T22:28:49.438Z,6.07
2018-03-15T22:31:17.110Z,6.13
2018-03-15T22:33:44.707Z,6.05
2018-03-15T22:36:12.331Z,5.99
2018-03-15T22:38:39.952Z,5.90
2018-03-15T22:41:07.592Z,5.78
2018-03-15T22:43:35.311Z,5.61
2018-03-15T22:46:02.942Z,5.56
2018-03-15T22:48:30.586Z,5.60
2018-03-15T22:50:58.285Z,5.59
2018-03-15T22:53:25.929Z,5.64
2018-03-15T22:55:53.562Z,5.62
2018-03-15T22:58:21.164Z,5.65
2018-03-15T23:00:48.832Z,5.64
2018-03-15T23:03:16.452Z,5.62
2018-03-15T23:05:44.113Z,5.61
2018-03-15T23:08:11.754Z,5.56
2018-03-15T23:10:39.497Z,5.52
2018-03-15T23:13:07.082Z,5.66
2018-03-15T23:15:34.743Z,5.72
2018-03-15T23:18:02.499Z,5.76
2018-03-15T23:20:30.202Z,5.79
2018-03-15T23:22:57.814Z,5.90
2018-03-15T23:25:25.474Z,5.91
2018-03-15T23:27:53.136Z,5.82
2018-03-15T23:30:20.805Z,5.73
2018-03-15T23:32:48.397Z,5.66
2018-03-15T23:35:16.073Z,5.51
2018-03-15T23:37:43.676Z,5.57
2018-03-15T23:40:11.305Z,5.52
2018-03-15T23:42:38.946Z,5.50
2018-03-15T23:45:06.589Z,5.60
2018-03-15T23:47:34.236Z,5.79
2018-03-15T23:50:01.881Z,5.81
2018-03-15T23:52:29.465Z,5.88
2018-03-15T23:54:57.058Z,5.92
2018-03-15T23:57:24.681Z,5.95
2018-03-15T23:59:52.315Z,5.68
